Funds performance table by strategy

help icon
fund name 1 mth 3 mth 12 mth ytdsort icon Inception Net assets Return Date
BNY Mellon Emerg Mkts Eq Core C € Acc 0% -1% 7% 10% 1% 137M 2014-11-30
Superfund Green, L.P. Series B 9% 5% 14% 10% 1% - 2014-11-30
RMB Government Inflation Linked Bond ETF 0% 2% 11% 10% 9% 431M 2014-11-30
UBS ETRACS S&P 500 Gold Hedged ETN 3% -5% 9% 10% 17% - 2014-11-30
FiveMore Fund EUR -2% 2% 15% 10% 12% 26M 2011-07-31
CFS Wholesale Index Australian Share 5% -1% 23% 10% 8% 93M 2013-07-31
Loomis Sayles Value Y 2% 1% 14% 10% 9% - 2014-11-30
DB Adv Inst Inv Euro Aggressive One 1% 1% 9% 10% 5% 71M 2014-11-30
Nedgroup Inv Growth B 1% 0% 12% 10% 11% 1383M 2014-11-30
Parvest Equity Europe Mid Cap I 3% 4% 13% 10% 4% 114M 2014-11-30
Sanlam Growth Institutional B1 1% -1% 15% 10% 20% 3093M 2014-11-30
Sanlam Growth Institutional B2 1% -1% 15% 10% 24% 3093M 2014-11-30
SIM Value B5 1% 0% 14% 10% 17% 3921M 2014-11-30
Integre Large Cap Prescient C 1% 3% 14% 10% 9% 55M 2014-11-30
American Beacon Lg Cap Value Y 2% 1% 13% 10% 16% - 2014-11-30
First Investors Tax Exempt Opps Instl 0% 0% 10% 10% 2% - 2014-11-30
Shs-B (CHF)-Areca SICAV-SIF-Val.Discover 1% 0% 12% 10% 9% - 2014-11-30
Pictet Europe Index I JPY Pic 8% 9% 0% 10% 18% 4295M 2014-11-30
MFS® Meridian US Concentrated Gr I1 USD 4% 4% 14% 10% 7% 625M 2014-11-30
STANLIB Nationbuilder A2 2% 4% 24% 10% 4% 160M 2014-07-31
Sanlam Multi Mgd Inflation Lnkd Bond B1 1% 2% 11% 10% 9% 821M 2014-11-30
Prescient Bond QuantPlus B3 1% 3% 12% 10% 9% 224M 2014-11-30
Transamerica Enhanced Muni I 0% 1% 10% 10% 7% - 2014-11-30
PIMCO GIS Glbl AdvRlRet G Intl€Ply H Inc 0% -1% 9% 10% 0% 604M 2014-11-30
SEB Danish Mortgage Bond ID SEK 0% 1% 9% 10% 8% 1814M 2014-11-30
ClearMark Partners LP 2% 5% 10% 10% 18% - 2010-12-31
Nordic Omega NOK 2% 1% 11% 10% 10% 1939M 2014-11-30
CFS Wholesale Indexed Australian Share 5% -1% 23% 10% 8% 4295M 2013-07-31
Nuveen PA Municipal Value Fund 0% 1% 11% 10% 7% - 2014-11-30
JHFunds2 All Cap Value NAV 1% 1% 10% 10% 5% - 2012-12-31

All our data is licensed from Morningstar UK Ltd. Important legal information